Portada
METAR-TAF:

METAR-TAF

Aeroports :

Mandalay, Myanmar

latitud: 21-59N, longitud: 096-06E, altitud: 74 m

Observació

L'informe es va fer fa 8 hores i 33 minuts, a les 13:30 UTC
Vent 4 kt del Nord-Oest
Temperatura 25°C
Humitat 47%
Pressió 1009 hPa
Visibilitat: 6000 m
Núvols disperses a una alçada de 1800 ft
Núvols disperses a una alçada de 12000 ft
calitja

METAR: VYMD 261330Z 31004KT 6000 HZ SCT018 SCT120 25/13 Q1009

Hora: 04:33 (22:03 UTC)

Pronòstic

L'informe es va fer fa 5 hores i 3 minuts, a les 17:00 UTC
Pronòstic vàlid del 26 a les 18 UTC al 27 a les 18 UTC
Vent 10 kt del Oest/Nord-Oest
Visibilitat: 7000 m
Núvols disperses a una alçada de 2500 ft
Temporalment
l' 26 a les 18 UTC al 26 a les 24 UTC
Vent 10 kt del Nord/Nord-Oest amb ràfegues de 20 kt
Visibilitat: 5000 m
Cel ennuvolat a una alçada de 2000 ft
Escasses núvols a una alçada de 12000 ft
calitja

TAF: VYMD 261700Z 2618/2718 29010KT 7000 SCT025 TEMPO 2618/2624 34010G20KT 5000 HZ BKN020 FEW120

Observacions i pronòstics meteorològics de més de 4000 aeroports (METAR i TAF).

Les estacions disponibles són els punts grocs i vermells al mapa.

Posi el ratolí al punt desitjat per veure el nom de l'estació.

Feu clic per veure les observacions i els pronòstics meteorològics.

Per canviar el mapa: feu clic els botons verds amb una creu de color negre per apropar; al botó verd amb un guió per allunyar la imatge; o en les fletxes verdes per a mapes adjacents.


METAR-TAF: